createdAt,value
2023-01-02T00:00:21.907Z,6.45
2023-01-02T00:01:11.879Z,6.46
2023-01-02T00:02:01.931Z,6.48
2023-01-02T00:02:51.950Z,6.50
2023-01-02T00:03:41.978Z,6.50
2023-01-02T00:04:31.846Z,6.51
2023-01-02T00:05:21.842Z,6.51
2023-01-02T00:06:11.824Z,6.53
2023-01-02T00:07:01.857Z,6.51
2023-01-02T00:07:51.806Z,6.53
2023-01-02T00:08:41.809Z,6.53
2023-01-02T00:09:31.789Z,6.53
2023-01-02T00:10:21.785Z,6.51
2023-01-02T00:11:11.774Z,6.50
2023-01-02T00:12:01.783Z,6.48
2023-01-02T00:12:51.765Z,6.46
2023-01-02T00:13:41.767Z,6.48
2023-01-02T00:14:31.743Z,6.48
2023-01-02T00:15:21.735Z,6.50
2023-01-02T00:16:11.751Z,6.50
2023-01-02T00:17:01.729Z,6.50
2023-01-02T00:17:51.695Z,6.48
2023-01-02T00:18:41.687Z,6.48
2023-01-02T00:19:31.681Z,6.46
2023-01-02T00:20:21.682Z,6.45
2023-01-02T00:21:11.663Z,6.45
2023-01-02T00:22:01.666Z,6.46
2023-01-02T00:22:51.645Z,6.42
2023-01-02T00:23:41.635Z,6.39
2023-01-02T00:24:31.647Z,6.38
2023-01-02T00:25:21.614Z,6.39
2023-01-02T00:26:11.590Z,6.39
2023-01-02T00:27:01.604Z,6.40
2023-01-02T00:27:51.603Z,6.40
2023-01-02T00:28:41.608Z,6.39
2023-01-02T00:29:31.574Z,6.39
2023-01-02T00:30:21.559Z,6.39
2023-01-02T00:31:11.565Z,6.39
2023-01-02T00:32:01.552Z,6.40
2023-01-02T00:32:51.528Z,6.39
2023-01-02T00:33:41.537Z,6.36
2023-01-02T00:34:31.509Z,6.36
2023-01-02T00:35:21.501Z,6.36
2023-01-02T00:36:11.501Z,6.38
2023-01-02T00:37:01.497Z,6.39
2023-01-02T00:37:51.471Z,6.39
2023-01-02T00:38:41.465Z,6.42
2023-01-02T00:39:31.450Z,6.40
2023-01-02T00:40:21.441Z,6.42
2023-01-02T00:41:11.460Z,6.42
2023-01-02T00:42:01.454Z,6.40
2023-01-02T00:42:51.425Z,6.40
2023-01-02T00:43:41.416Z,6.40
2023-01-02T00:44:31.400Z,6.39
2023-01-02T00:45:21.399Z,6.39
2023-01-02T00:46:12.350Z,6.39
2023-01-02T00:47:01.462Z,6.36
2023-01-02T00:47:51.353Z,6.36
2023-01-02T00:48:41.348Z,6.32
2023-01-02T00:49:31.340Z,6.27
2023-01-02T00:50:21.337Z,6.25
2023-01-02T00:51:11.337Z,6.24
2023-01-02T00:52:01.355Z,6.21
2023-01-02T00:52:51.292Z,6.21
2023-01-02T00:53:41.340Z,6.20
2023-01-02T00:54:31.277Z,6.19
2023-01-02T00:55:21.290Z,6.17
2023-01-02T00:56:11.265Z,6.16
2023-01-02T00:57:01.265Z,6.17
2023-01-02T00:57:51.260Z,6.19
2023-01-02T00:58:41.236Z,6.19
2023-01-02T00:59:31.222Z,6.20
2023-01-02T01:00:28.956Z,6.24
2023-01-02T01:01:12.358Z,6.25
2023-01-02T01:02:01.312Z,6.27
2023-01-02T01:02:51.212Z,6.27
2023-01-02T01:03:41.188Z,6.25
2023-01-02T01:04:31.172Z,6.24
2023-01-02T01:05:21.169Z,6.19
2023-01-02T01:06:11.168Z,6.16
2023-01-02T01:07:01.165Z,6.16
2023-01-02T01:07:51.142Z,6.14
2023-01-02T01:08:41.124Z,6.14
2023-01-02T01:09:31.104Z,6.14
2023-01-02T01:10:21.108Z,6.14
2023-01-02T01:11:11.103Z,6.14
2023-01-02T01:12:04.760Z,6.14
2023-01-02T01:12:51.074Z,6.11
2023-01-02T01:13:41.097Z,6.10
2023-01-02T01:14:31.055Z,6.10
2023-01-02T01:15:21.046Z,6.08
2023-01-02T01:16:11.064Z,6.10
2023-01-02T01:17:01.053Z,6.08
2023-01-02T01:17:51.013Z,6.10
2023-01-02T01:18:41.029Z,6.08
2023-01-02T01:19:31.002Z,6.08
2023-01-02T01:20:20.992Z,6.06
2023-01-02T01:21:10.972Z,6.08
2023-01-02T01:22:00.982Z,6.08
2023-01-02T01:22:50.961Z,6.08
2023-01-02T01:23:40.966Z,6.08
2023-01-02T01:24:30.946Z,6.08
2023-01-02T01:25:20.935Z,6.08
2023-01-02T01:26:10.932Z,6.08
2023-01-02T01:27:00.936Z,6.08
2023-01-02T01:27:50.943Z,6.08
2023-01-02T01:28:40.908Z,6.03
2023-01-02T01:29:30.887Z,6.03
2023-01-02T01:30:20.892Z,6.03
2023-01-02T01:31:10.919Z,6.06
2023-01-02T01:32:00.957Z,6.05
2023-01-02T01:32:50.852Z,6.05
2023-01-02T01:33:40.863Z,6.06
2023-01-02T01:34:30.832Z,6.06
2023-01-02T01:35:20.830Z,6.08
2023-01-02T01:36:10.821Z,6.08
2023-01-02T01:37:00.831Z,6.10
2023-01-02T01:37:50.802Z,6.11
2023-01-02T01:38:40.795Z,6.11
2023-01-02T01:39:30.769Z,6.10
2023-01-02T01:40:20.778Z,6.05
2023-01-02T01:41:10.759Z,5.99
2023-01-02T01:42:00.767Z,5.95
2023-01-02T01:42:52.115Z,5.98
2023-01-02T01:43:40.750Z,5.95
2023-01-02T01:44:30.750Z,5.96
2023-01-02T01:45:20.719Z,5.98
2023-01-02T01:46:10.739Z,5.98
2023-01-02T01:47:00.710Z,5.95
2023-01-02T01:47:50.681Z,5.95
2023-01-02T01:48:40.678Z,5.96
2023-01-02T01:49:30.664Z,5.95
2023-01-02T01:50:20.657Z,5.95
2023-01-02T01:51:10.638Z,5.95
2023-01-02T01:52:00.659Z,5.92
2023-01-02T01:52:50.629Z,5.95
2023-01-02T01:53:40.638Z,5.93
2023-01-02T01:54:30.605Z,5.93
2023-01-02T01:55:20.609Z,5.95
2023-01-02T01:56:10.589Z,5.95
2023-01-02T01:57:00.598Z,5.93
2023-01-02T01:57:50.568Z,5.95
2023-01-02T01:58:40.567Z,5.96
2023-01-02T01:59:30.559Z,5.98
2023-01-02T02:00:20.559Z,5.99
2023-01-02T02:01:10.612Z,5.99
2023-01-02T02:02:00.734Z,5.96
2023-01-02T02:02:50.632Z,5.96
2023-01-02T02:03:40.506Z,5.96
2023-01-02T02:04:30.503Z,5.93
2023-01-02T02:05:20.502Z,5.92
2023-01-02T02:06:10.480Z,5.90
2023-01-02T02:07:00.495Z,5.88
2023-01-02T02:07:50.465Z,5.85
2023-01-02T02:08:40.464Z,5.84
2023-01-02T02:09:30.440Z,5.85
2023-01-02T02:10:20.442Z,5.85
2023-01-02T02:11:10.419Z,5.84
2023-01-02T02:12:00.460Z,5.78
2023-01-02T02:12:50.394Z,5.75
2023-01-02T02:13:40.393Z,5.77
2023-01-02T02:14:30.388Z,5.75
2023-01-02T02:15:20.379Z,5.75
2023-01-02T02:16:10.410Z,5.75
2023-01-02T02:17:00.380Z,5.74
2023-01-02T02:17:50.342Z,5.73
2023-01-02T02:18:40.336Z,5.74
2023-01-02T02:19:30.337Z,5.69
2023-01-02T02:20:20.321Z,5.66
2023-01-02T02:21:10.313Z,5.66
2023-01-02T02:22:00.313Z,5.65
2023-01-02T02:22:50.292Z,5.65
2023-01-02T02:23:40.314Z,5.65
2023-01-02T02:24:30.275Z,5.65
2023-01-02T02:25:20.263Z,5.62
2023-01-02T02:26:10.256Z,5.63
2023-01-02T02:27:00.263Z,5.62
2023-01-02T02:27:50.258Z,5.62
2023-01-02T02:28:40.230Z,5.62
2023-01-02T02:29:30.211Z,5.66
2023-01-02T02:30:20.212Z,5.63
2023-01-02T02:31:10.209Z,5.62
2023-01-02T02:32:00.299Z,5.65
2023-01-02T02:32:50.189Z,5.63
2023-01-02T02:33:40.174Z,5.59
2023-01-02T02:34:30.154Z,5.55
2023-01-02T02:35:20.163Z,5.52
2023-01-02T02:36:10.139Z,5.52
2023-01-02T02:37:00.153Z,5.48
2023-01-02T02:37:50.120Z,5.45
2023-01-02T02:38:40.118Z,5.47
2023-01-02T02:39:30.098Z,5.47
2023-01-02T02:40:20.095Z,5.48
2023-01-02T02:41:10.095Z,5.47
2023-01-02T02:42:00.108Z,5.45
2023-01-02T02:42:50.093Z,5.45
2023-01-02T02:43:40.066Z,5.44
2023-01-02T02:44:30.051Z,5.41
2023-01-02T02:45:20.037Z,5.41
2023-01-02T02:46:10.173Z,5.41
2023-01-02T02:47:00.040Z,5.38
2023-01-02T02:47:50.012Z,5.32
2023-01-02T02:48:46.239Z,5.30
2023-01-02T02:49:30.987Z,5.29
2023-01-02T02:50:19.987Z,5.29
2023-01-02T02:51:09.981Z,5.27
2023-01-02T02:51:59.986Z,5.27
2023-01-02T02:52:49.962Z,5.26
2023-01-02T02:53:39.947Z,5.24
2023-01-02T02:54:29.951Z,5.26
2023-01-02T02:55:19.927Z,5.24
2023-01-02T02:56:09.914Z,5.23
2023-01-02T02:56:59.934Z,5.23
2023-01-02T02:57:49.896Z,5.22
2023-01-02T02:58:39.896Z,5.23
2023-01-02T02:59:29.876Z,5.24
2023-01-02T03:00:19.891Z,5.24
2023-01-02T03:01:09.863Z,5.24
2023-01-02T03:02:00.168Z,5.24
2023-01-02T03:02:49.953Z,5.26
2023-01-02T03:03:39.844Z,5.24
2023-01-02T03:04:29.828Z,5.26
2023-01-02T03:05:19.816Z,5.24
2023-01-02T03:06:09.830Z,5.26
2023-01-02T03:06:59.819Z,5.27
2023-01-02T03:07:49.792Z,5.29
2023-01-02T03:08:39.789Z,5.23
2023-01-02T03:09:29.764Z,5.19
2023-01-02T03:10:19.754Z,5.15
2023-01-02T03:11:09.745Z,5.11
2023-01-02T03:11:59.754Z,5.09
2023-01-02T03:12:49.733Z,5.11
2023-01-02T03:13:41.895Z,5.11
2023-01-02T03:14:29.715Z,5.09
2023-01-02T03:15:19.718Z,5.11
2023-01-02T03:16:09.696Z,5.11
2023-01-02T03:16:59.742Z,5.11
2023-01-02T03:17:49.680Z,5.12
2023-01-02T03:18:39.664Z,5.15
2023-01-02T03:19:29.653Z,5.17
2023-01-02T03:20:19.651Z,5.19
2023-01-02T03:21:09.645Z,5.20
2023-01-02T03:21:59.693Z,5.22
2023-01-02T03:22:49.612Z,5.22
2023-01-02T03:23:39.613Z,5.22
2023-01-02T03:24:29.608Z,5.22
2023-01-02T03:25:19.595Z,5.20
2023-01-02T03:26:09.587Z,5.20
2023-01-02T03:26:59.589Z,5.20
2023-01-02T03:27:49.564Z,5.23
2023-01-02T03:28:39.561Z,5.24
2023-01-02T03:29:29.542Z,5.23
2023-01-02T03:30:19.542Z,5.20
2023-01-02T03:31:09.629Z,5.19
2023-01-02T03:31:59.550Z,5.19
2023-01-02T03:32:49.507Z,5.15
2023-01-02T03:33:39.513Z,5.15
2023-01-02T03:34:29.492Z,5.14
2023-01-02T03:35:19.502Z,5.12
2023-01-02T03:36:09.471Z,5.14
2023-01-02T03:36:59.477Z,5.17
2023-01-02T03:37:49.466Z,5.19
2023-01-02T03:38:39.443Z,5.20
2023-01-02T03:39:29.443Z,5.20
2023-01-02T03:40:19.430Z,5.20
2023-01-02T03:41:09.411Z,5.20
2023-01-02T03:41:59.428Z,5.22
2023-01-02T03:42:49.399Z,5.22
2023-01-02T03:43:39.386Z,5.22
2023-01-02T03:44:29.376Z,5.22
2023-01-02T03:45:19.395Z,5.22
2023-01-02T03:46:09.383Z,5.23
2023-01-02T03:46:59.379Z,5.22
2023-01-02T03:47:49.344Z,5.22
2023-01-02T03:48:39.330Z,5.20
2023-01-02T03:49:29.329Z,5.19
2023-01-02T03:50:19.317Z,5.14
2023-01-02T03:51:09.300Z,5.06
2023-01-02T03:51:59.312Z,5.01
2023-01-02T03:52:49.320Z,5.02
2023-01-02T03:53:39.286Z,5.01
2023-01-02T03:54:29.279Z,5.04
2023-01-02T03:55:19.249Z,5.05
2023-01-02T03:56:09.252Z,5.04
2023-01-02T03:56:59.237Z,5.04
2023-01-02T03:57:55.154Z,5.06
2023-01-02T03:58:40.216Z,5.05
2023-01-02T03:59:29.208Z,5.05
2023-01-02T04:00:19.188Z,5.01
2023-01-02T04:01:09.222Z,4.97
2023-01-02T04:01:59.283Z,4.99
2023-01-02T04:02:49.232Z,5.01
2023-01-02T04:03:39.164Z,5.02
2023-01-02T04:04:29.153Z,5.05
2023-01-02T04:05:19.153Z,5.06
2023-01-02T04:06:09.138Z,5.08
2023-01-02T04:06:59.126Z,5.11
2023-01-02T04:07:49.137Z,5.12
2023-01-02T04:08:39.111Z,5.12
2023-01-02T04:09:29.098Z,5.14
2023-01-02T04:10:19.096Z,5.17
2023-01-02T04:11:09.102Z,5.17
2023-01-02T04:11:59.055Z,5.15
2023-01-02T04:12:49.092Z,5.17
2023-01-02T04:13:39.048Z,5.17
2023-01-02T04:14:29.046Z,5.15
2023-01-02T04:15:19.023Z,5.15
2023-01-02T04:16:09.103Z,5.17
2023-01-02T04:16:59.004Z,5.14
2023-01-02T04:17:49.016Z,5.15
2023-01-02T04:18:44.624Z,5.15
2023-01-02T04:19:29.981Z,5.17
2023-01-02T04:20:18.966Z,5.17
2023-01-02T04:21:08.954Z,5.15
2023-01-02T04:21:58.942Z,5.15
2023-01-02T04:22:48.955Z,5.14
2023-01-02T04:23:38.935Z,5.14
2023-01-02T04:24:28.947Z,5.15
2023-01-02T04:25:18.913Z,5.14
2023-01-02T04:26:08.904Z,5.12
2023-01-02T04:26:58.897Z,5.11
2023-01-02T04:27:48.915Z,5.11
2023-01-02T04:28:38.885Z,5.11
2023-01-02T04:29:28.874Z,5.12
2023-01-02T04:30:18.862Z,5.08
2023-01-02T04:31:08.874Z,5.05
2023-01-02T04:31:58.844Z,5.02
2023-01-02T04:32:48.858Z,4.99
2023-01-02T04:33:38.821Z,5.01
2023-01-02T04:34:28.819Z,4.97
2023-01-02T04:35:18.802Z,4.99
2023-01-02T04:36:08.808Z,4.99
2023-01-02T04:36:58.780Z,5.01
2023-01-02T04:37:48.791Z,5.02
2023-01-02T04:38:38.764Z,5.02
2023-01-02T04:39:28.760Z,5.02
2023-01-02T04:40:18.740Z,5.01
2023-01-02T04:41:08.750Z,5.02
2023-01-02T04:41:58.720Z,5.02
2023-01-02T04:42:48.745Z,5.01
2023-01-02T04:43:38.709Z,5.01
2023-01-02T04:44:28.703Z,5.01
2023-01-02T04:45:18.690Z,5.01
2023-01-02T04:46:08.726Z,5.02
2023-01-02T04:46:58.680Z,5.01
2023-01-02T04:47:48.707Z,5.01
2023-01-02T04:48:38.661Z,5.02
2023-01-02T04:49:28.653Z,4.99
2023-01-02T04:50:18.640Z,4.99
2023-01-02T04:51:08.628Z,4.97
2023-01-02T04:51:58.609Z,4.94
2023-01-02T04:52:48.624Z,4.90
2023-01-02T04:53:38.598Z,4.91
2023-01-02T04:54:28.587Z,4.94
2023-01-02T04:55:18.575Z,4.96
2023-01-02T04:56:08.577Z,4.94
2023-01-02T04:56:58.563Z,4.97
2023-01-02T04:57:48.563Z,4.96
2023-01-02T04:58:38.541Z,4.94
2023-01-02T04:59:28.539Z,4.94
2023-01-02T05:00:18.516Z,4.91
2023-01-02T05:01:08.515Z,4.90
2023-01-02T05:01:58.638Z,4.87
2023-01-02T05:02:48.581Z,4.84
2023-01-02T05:03:38.564Z,4.80
2023-01-02T05:04:28.483Z,4.80
2023-01-02T05:05:18.473Z,4.79
2023-01-02T05:06:08.473Z,4.77
2023-01-02T05:06:58.458Z,4.77
2023-01-02T05:07:48.466Z,4.75
2023-01-02T05:08:38.447Z,4.79
2023-01-02T05:09:28.428Z,4.77
2023-01-02T05:10:18.406Z,4.79
2023-01-02T05:11:08.404Z,4.83
2023-01-02T05:11:58.391Z,4.84
2023-01-02T05:12:48.422Z,4.86
2023-01-02T05:13:38.372Z,4.87
2023-01-02T05:14:28.363Z,4.88
2023-01-02T05:15:18.353Z,4.88
2023-01-02T05:16:08.370Z,4.90
2023-01-02T05:16:58.340Z,4.88
2023-01-02T05:17:48.344Z,4.86
2023-01-02T05:18:38.315Z,4.83
2023-01-02T05:19:28.343Z,4.84
2023-01-02T05:20:18.297Z,4.84
2023-01-02T05:21:08.302Z,4.86
2023-01-02T05:21:58.273Z,4.87
2023-01-02T05:22:48.294Z,4.88
2023-01-02T05:23:38.264Z,4.91
2023-01-02T05:24:28.279Z,4.91
2023-01-02T05:25:18.259Z,4.96
2023-01-02T05:26:08.233Z,4.96
2023-01-02T05:26:58.229Z,4.93
2023-01-02T05:27:48.254Z,4.93
2023-01-02T05:28:38.919Z,4.91
2023-01-02T05:29:28.192Z,4.86
2023-01-02T05:30:18.192Z,4.84
2023-01-02T05:31:08.196Z,4.83
2023-01-02T05:31:58.167Z,4.80
2023-01-02T05:32:48.184Z,4.84
2023-01-02T05:33:38.143Z,4.83
2023-01-02T05:34:28.143Z,4.84
2023-01-02T05:35:18.123Z,4.84
2023-01-02T05:36:08.128Z,4.84
2023-01-02T05:36:58.133Z,4.84
2023-01-02T05:37:48.114Z,4.84
2023-01-02T05:38:38.095Z,4.84
2023-01-02T05:39:28.088Z,4.84
2023-01-02T05:40:18.080Z,4.86
2023-01-02T05:41:08.060Z,4.87
2023-01-02T05:41:58.066Z,4.87
2023-01-02T05:42:48.065Z,4.86
2023-01-02T05:43:38.054Z,4.84
2023-01-02T05:44:28.028Z,4.86
2023-01-02T05:45:18.039Z,4.86
2023-01-02T05:46:08.048Z,4.87
2023-01-02T05:46:58.087Z,4.86
2023-01-02T05:47:48.009Z,4.87
2023-01-02T05:48:37.986Z,4.84
2023-01-02T05:49:28.000Z,4.83
2023-01-02T05:50:17.964Z,4.75
2023-01-02T05:51:07.951Z,4.71
2023-01-02T05:51:57.944Z,4.69
2023-01-02T05:52:47.947Z,4.72
2023-01-02T05:53:37.943Z,4.72
2023-01-02T05:54:27.938Z,4.74
2023-01-02T05:55:17.928Z,4.79
2023-01-02T05:56:07.898Z,4.77
2023-01-02T05:56:57.877Z,4.80
2023-01-02T05:57:47.890Z,4.83
2023-01-02T05:58:37.867Z,4.84
2023-01-02T05:59:27.895Z,4.86
2023-01-02T06:00:17.848Z,4.84
2023-01-02T06:01:07.840Z,4.83
2023-01-02T06:01:57.926Z,4.83
2023-01-02T06:02:48.719Z,4.84
2023-01-02T06:03:37.825Z,4.80
2023-01-02T06:04:27.819Z,4.83
2023-01-02T06:05:17.795Z,4.79
2023-01-02T06:06:07.807Z,4.79
2023-01-02T06:06:57.771Z,4.77
2023-01-02T06:07:47.785Z,4.80
2023-01-02T06:08:37.756Z,4.75
2023-01-02T06:09:27.756Z,4.77
2023-01-02T06:10:17.746Z,4.77
2023-01-02T06:11:07.733Z,4.75
2023-01-02T06:11:57.725Z,4.74
2023-01-02T06:12:47.728Z,4.74
2023-01-02T06:13:37.693Z,4.74
2023-01-02T06:14:27.688Z,4.74
2023-01-02T06:15:17.673Z,4.74
2023-01-02T06:16:07.767Z,4.72
2023-01-02T06:16:57.653Z,4.69
2023-01-02T06:17:47.674Z,4.69
2023-01-02T06:18:37.646Z,4.69
2023-01-02T06:19:27.645Z,4.68
2023-01-02T06:20:17.634Z,4.69
2023-01-02T06:21:07.684Z,4.69
2023-01-02T06:21:57.814Z,4.71
2023-01-02T06:22:47.617Z,4.72
2023-01-02T06:23:37.673Z,4.72
2023-01-02T06:24:27.665Z,4.72
2023-01-02T06:25:17.565Z,4.72
2023-01-02T06:26:07.576Z,4.71
2023-01-02T06:26:57.549Z,4.71
2023-01-02T06:27:47.622Z,4.71
2023-01-02T06:28:37.527Z,4.68
2023-01-02T06:29:27.539Z,4.65
2023-01-02T06:30:17.505Z,4.67
2023-01-02T06:31:07.614Z,4.65
2023-01-02T06:31:57.525Z,4.65
2023-01-02T06:32:47.507Z,4.65
2023-01-02T06:33:37.476Z,4.65
2023-01-02T06:34:27.470Z,4.64
2023-01-02T06:35:17.461Z,4.62
2023-01-02T06:36:07.455Z,4.62
2023-01-02T06:36:57.485Z,4.62
2023-01-02T06:37:47.438Z,4.62
2023-01-02T06:38:37.436Z,4.62
2023-01-02T06:39:27.399Z,4.62
2023-01-02T06:40:17.412Z,4.62
2023-01-02T06:41:07.391Z,4.64
2023-01-02T06:41:57.370Z,4.64
2023-01-02T06:42:47.391Z,4.64
2023-01-02T06:43:37.361Z,4.61
2023-01-02T06:44:27.349Z,4.61
2023-01-02T06:45:17.350Z,4.61
2023-01-02T06:46:07.356Z,4.61
2023-01-02T06:46:57.324Z,4.62
2023-01-02T06:47:47.333Z,4.59
2023-01-02T06:48:37.299Z,4.57
2023-01-02T06:49:27.321Z,4.56
2023-01-02T06:50:17.287Z,4.56
2023-01-02T06:51:07.291Z,4.56
2023-01-02T06:51:57.273Z,4.54
2023-01-02T06:52:47.278Z,4.53
2023-01-02T06:53:37.252Z,4.50
2023-01-02T06:54:27.274Z,4.49
2023-01-02T06:55:17.226Z,4.51
2023-01-02T06:56:07.217Z,4.51
2023-01-02T06:56:57.216Z,4.49
2023-01-02T06:57:47.223Z,4.44
2023-01-02T06:58:37.197Z,4.43
2023-01-02T06:59:27.186Z,4.44
2023-01-02T07:00:17.173Z,4.46
2023-01-02T07:01:07.209Z,4.47
2023-01-02T07:01:57.261Z,4.49
2023-01-02T07:02:47.391Z,4.49
2023-01-02T07:03:37.139Z,4.51
2023-01-02T07:04:27.146Z,4.51
2023-01-02T07:05:22.673Z,4.51
2023-01-02T07:06:08.114Z,4.51
2023-01-02T07:06:57.097Z,4.53
2023-01-02T07:07:47.110Z,4.53
2023-01-02T07:08:37.088Z,4.51
2023-01-02T07:09:27.074Z,4.53
2023-01-02T07:10:17.066Z,4.53
2023-01-02T07:11:07.060Z,4.51
2023-01-02T07:11:57.060Z,4.53
2023-01-02T07:12:47.048Z,4.53
2023-01-02T07:13:37.039Z,4.51
2023-01-02T07:14:27.025Z,4.51
2023-01-02T07:15:17.004Z,4.51
2023-01-02T07:16:07.046Z,4.51
2023-01-02T07:16:57.074Z,4.53
2023-01-02T07:17:46.999Z,4.53
2023-01-02T07:18:36.973Z,4.51
2023-01-02T07:19:26.961Z,4.53
2023-01-02T07:20:16.964Z,4.54
2023-01-02T07:21:06.949Z,4.54
2023-01-02T07:21:56.933Z,4.53
2023-01-02T07:22:46.933Z,4.51
2023-01-02T07:23:36.911Z,4.54
2023-01-02T07:24:26.908Z,4.54
2023-01-02T07:25:16.891Z,4.56
2023-01-02T07:26:06.881Z,4.54
2023-01-02T07:26:56.880Z,4.56
2023-01-02T07:27:46.894Z,4.56
2023-01-02T07:28:36.870Z,4.53
2023-01-02T07:29:26.840Z,4.53
2023-01-02T07:30:16.849Z,4.51
2023-01-02T07:31:06.833Z,4.53
2023-01-02T07:31:56.890Z,4.51
2023-01-02T07:32:46.834Z,4.51
2023-01-02T07:33:36.819Z,4.49
2023-01-02T07:34:26.789Z,4.49
2023-01-02T07:35:16.788Z,4.49
2023-01-02T07:36:06.770Z,4.49
2023-01-02T07:36:56.761Z,4.49
2023-01-02T07:37:46.767Z,4.49
2023-01-02T07:38:36.747Z,4.50
2023-01-02T07:39:26.738Z,4.49
2023-01-02T07:40:16.792Z,4.50
2023-01-02T07:41:06.709Z,4.49
2023-01-02T07:41:56.708Z,4.49
2023-01-02T07:42:46.711Z,4.49
2023-01-02T07:43:36.725Z,4.47
2023-01-02T07:44:26.684Z,4.50
2023-01-02T07:45:16.677Z,4.49
2023-01-02T07:46:06.704Z,4.49
2023-01-02T07:46:56.657Z,4.49
2023-01-02T07:47:46.662Z,4.49
2023-01-02T07:48:36.635Z,4.49
2023-01-02T07:49:26.625Z,4.50
2023-01-02T07:50:16.627Z,4.50
2023-01-02T07:51:06.607Z,4.53
2023-01-02T07:51:56.605Z,4.51
2023-01-02T07:52:46.639Z,4.53
2023-01-02T07:53:36.585Z,4.54
2023-01-02T07:54:26.565Z,4.56
2023-01-02T07:55:16.555Z,4.54
2023-01-02T07:56:06.547Z,4.53
2023-01-02T07:56:56.543Z,4.50
2023-01-02T07:57:46.554Z,4.51
2023-01-02T07:58:36.519Z,4.54
2023-01-02T07:59:26.515Z,4.53
2023-01-02T08:00:16.521Z,4.54
2023-01-02T08:01:06.569Z,4.56
2023-01-02T08:01:56.715Z,4.56
2023-01-02T08:02:46.485Z,4.57
2023-01-02T08:03:36.507Z,4.57
2023-01-02T08:04:26.511Z,4.57
2023-01-02T08:05:16.448Z,4.59
2023-01-02T08:06:06.443Z,4.57
2023-01-02T08:06:56.440Z,4.59
2023-01-02T08:07:46.424Z,4.59
2023-01-02T08:08:36.438Z,4.59
2023-01-02T08:09:26.393Z,4.61
2023-01-02T08:10:16.390Z,4.59
2023-01-02T08:11:06.374Z,4.59
2023-01-02T08:11:56.384Z,4.61
2023-01-02T08:12:46.387Z,4.62
2023-01-02T08:13:36.358Z,4.62
2023-01-02T08:14:26.343Z,4.65
2023-01-02T08:15:16.340Z,4.65
2023-01-02T08:16:06.341Z,4.65
2023-01-02T08:16:56.339Z,4.65
2023-01-02T08:17:46.326Z,4.64
2023-01-02T08:18:36.309Z,4.65
2023-01-02T08:19:26.281Z,4.64
2023-01-02T08:20:16.287Z,4.64
2023-01-02T08:21:06.262Z,4.65
2023-01-02T08:21:56.261Z,4.65
2023-01-02T08:22:46.270Z,4.67
2023-01-02T08:23:36.246Z,4.69
2023-01-02T08:24:26.239Z,4.69
2023-01-02T08:25:16.235Z,4.71
2023-01-02T08:26:06.220Z,4.72
2023-01-02T08:26:56.212Z,4.67
2023-01-02T08:27:46.222Z,4.67
2023-01-02T08:28:36.179Z,4.68
2023-01-02T08:29:26.168Z,4.68
2023-01-02T08:30:16.179Z,4.71
2023-01-02T08:31:06.194Z,4.69
2023-01-02T08:31:56.149Z,4.71
2023-01-02T08:32:46.152Z,4.71
2023-01-02T08:33:36.151Z,4.69
2023-01-02T08:34:26.108Z,4.72
2023-01-02T08:35:16.110Z,4.74
2023-01-02T08:36:06.107Z,4.75
2023-01-02T08:36:56.103Z,4.80
2023-01-02T08:37:50.435Z,4.80
2023-01-02T08:38:36.090Z,4.80
2023-01-02T08:39:26.057Z,4.79
2023-01-02T08:40:16.056Z,4.77
2023-01-02T08:41:06.057Z,4.79
2023-01-02T08:41:56.058Z,4.79
2023-01-02T08:42:46.046Z,4.79
2023-01-02T08:43:36.025Z,4.79
2023-01-02T08:44:26.008Z,4.79
2023-01-02T08:45:15.998Z,4.80
2023-01-02T08:46:06.071Z,4.79
2023-01-02T08:46:55.988Z,4.80
2023-01-02T08:47:45.983Z,4.83
2023-01-02T08:48:35.971Z,4.84
2023-01-02T08:49:25.948Z,4.86
2023-01-02T08:50:15.937Z,4.86
2023-01-02T08:51:05.926Z,4.86
2023-01-02T08:51:55.927Z,4.87
2023-01-02T08:52:45.955Z,4.87
2023-01-02T08:53:35.922Z,4.87
2023-01-02T08:54:25.891Z,4.88
2023-01-02T08:55:15.893Z,4.88
2023-01-02T08:56:05.875Z,4.91
2023-01-02T08:56:55.866Z,4.91
2023-01-02T08:57:45.872Z,4.93
2023-01-02T08:58:35.861Z,4.91
2023-01-02T08:59:25.826Z,4.93
2023-01-02T09:00:15.839Z,4.94
2023-01-02T09:01:05.852Z,4.96
2023-01-02T09:01:55.970Z,4.96
2023-01-02T09:02:45.938Z,4.96
2023-01-02T09:03:35.842Z,4.99
2023-01-02T09:04:25.784Z,5.01
2023-01-02T09:05:15.785Z,5.02
2023-01-02T09:06:05.753Z,5.05
2023-01-02T09:06:55.763Z,5.05
2023-01-02T09:07:45.761Z,5.08
2023-01-02T09:08:35.734Z,5.09
2023-01-02T09:09:25.722Z,5.11
2023-01-02T09:10:15.726Z,5.12
2023-01-02T09:11:05.702Z,5.14
2023-01-02T09:11:55.703Z,5.14
2023-01-02T09:12:45.697Z,5.14
2023-01-02T09:13:35.682Z,5.12
2023-01-02T09:14:25.668Z,5.12
2023-01-02T09:15:15.661Z,5.11
2023-01-02T09:16:05.701Z,5.11
2023-01-02T09:16:55.643Z,5.14
2023-01-02T09:17:45.640Z,5.14
2023-01-02T09:18:35.623Z,5.19
2023-01-02T09:19:25.614Z,5.23
2023-01-02T09:20:15.614Z,5.26
2023-01-02T09:21:05.600Z,5.27
2023-01-02T09:21:55.580Z,5.24
2023-01-02T09:22:45.592Z,5.27
2023-01-02T09:23:35.590Z,5.30
2023-01-02T09:24:25.559Z,5.27
2023-01-02T09:25:22.035Z,5.27
2023-01-02T09:26:06.547Z,5.27
2023-01-02T09:26:55.532Z,5.29
2023-01-02T09:27:45.535Z,5.32
2023-01-02T09:28:35.560Z,5.32
2023-01-02T09:29:25.509Z,5.33
2023-01-02T09:30:15.498Z,5.37
2023-01-02T09:31:11.680Z,5.37
2023-01-02T09:31:56.483Z,5.35
2023-01-02T09:32:45.506Z,5.38
2023-01-02T09:33:35.463Z,5.40
2023-01-02T09:34:25.455Z,5.44
2023-01-02T09:35:15.431Z,5.41
2023-01-02T09:36:05.440Z,5.45
2023-01-02T09:36:55.434Z,5.47
2023-01-02T09:37:45.422Z,5.51
2023-01-02T09:38:35.410Z,5.55
2023-01-02T09:39:31.955Z,5.56
2023-01-02T09:40:16.397Z,5.60
2023-01-02T09:41:05.366Z,5.62
2023-01-02T09:41:55.356Z,5.66
2023-01-02T09:42:45.358Z,5.67
2023-01-02T09:43:35.345Z,5.69
2023-01-02T09:44:25.323Z,5.74
2023-01-02T09:45:15.329Z,5.77
2023-01-02T09:46:05.419Z,5.80
2023-01-02T09:46:55.309Z,5.83
2023-01-02T09:47:45.298Z,5.85
2023-01-02T09:48:35.305Z,5.88
2023-01-02T09:49:25.267Z,5.92
2023-01-02T09:50:15.272Z,5.93
2023-01-02T09:51:07.731Z,5.95
2023-01-02T09:51:55.259Z,5.96
2023-01-02T09:52:45.231Z,5.96
2023-01-02T09:53:35.242Z,5.99
2023-01-02T09:54:25.275Z,6.01
2023-01-02T09:55:15.207Z,6.03
2023-01-02T09:56:05.223Z,6.05
2023-01-02T09:56:55.200Z,6.08
2023-01-02T09:57:45.183Z,6.08
2023-01-02T09:58:35.253Z,6.13
2023-01-02T09:59:25.159Z,6.13
2023-01-02T10:00:15.153Z,6.16
2023-01-02T10:01:05.147Z,6.17
2023-01-02T10:01:55.176Z,6.20
2023-01-02T10:02:45.164Z,6.21
2023-01-02T10:03:35.250Z,6.25
2023-01-02T10:04:25.165Z,6.28
2023-01-02T10:05:15.120Z,6.30
2023-01-02T10:06:05.087Z,6.33
2023-01-02T10:06:55.081Z,6.36
2023-01-02T10:07:45.087Z,6.38
2023-01-02T10:08:35.287Z,6.42
2023-01-02T10:09:25.050Z,6.46
2023-01-02T10:10:15.173Z,6.48
2023-01-02T10:11:05.020Z,6.53
2023-01-02T10:11:55.030Z,6.55
2023-01-02T10:12:45.047Z,6.58
2023-01-02T10:14:16.734Z,6.64
2023-01-02T10:14:33.891Z,6.68
2023-01-02T10:15:16.006Z,6.72
2023-01-02T10:16:04.995Z,6.75
2023-01-02T10:16:54.960Z,6.78
2023-01-02T10:17:44.967Z,6.81
2023-01-02T10:18:34.962Z,6.83
2023-01-02T10:19:24.934Z,6.91
2023-01-02T10:20:20.417Z,6.94
2023-01-02T10:21:05.915Z,6.99
2023-01-02T10:21:54.995Z,7.07
2023-01-02T10:22:44.908Z,7.15
2023-01-02T10:23:34.900Z,7.18
2023-01-02T10:24:24.881Z,7.21
2023-01-02T10:25:14.870Z,7.26
2023-01-02T10:26:04.860Z,7.33
2023-01-02T10:26:54.855Z,7.44
2023-01-02T10:27:44.848Z,7.55
2023-01-02T10:28:34.852Z,7.81
2023-01-02T10:29:24.828Z,7.96
2023-01-02T10:30:14.847Z,8.09
2023-01-02T10:31:07.448Z,8.18
2023-01-02T10:31:54.822Z,8.21
2023-01-02T10:32:44.800Z,8.27
2023-01-02T10:33:34.789Z,8.28
2023-01-02T10:34:24.757Z,8.29
2023-01-02T10:35:14.757Z,8.32
2023-01-02T10:36:04.748Z,8.34
2023-01-02T10:36:54.737Z,8.36
2023-01-02T10:37:44.728Z,8.43
2023-01-02T10:38:34.737Z,8.54
2023-01-02T10:39:24.743Z,8.61
2023-01-02T10:40:14.698Z,8.65
2023-01-02T10:41:04.701Z,8.71
2023-01-02T10:41:54.691Z,8.79
2023-01-02T10:42:44.678Z,8.86
2023-01-02T10:43:34.677Z,8.91
2023-01-02T10:44:24.656Z,8.97
2023-01-02T10:45:14.638Z,9.00
2023-01-02T10:46:04.651Z,9.04
2023-01-02T10:46:54.679Z,9.10
2023-01-02T10:47:44.617Z,9.13
2023-01-02T10:48:34.617Z,9.17
2023-01-02T10:49:24.607Z,9.20
2023-01-02T10:50:14.595Z,9.26
2023-01-02T10:51:04.603Z,9.32
2023-01-02T10:51:54.595Z,9.38
2023-01-02T10:52:44.591Z,9.41
2023-01-02T10:53:34.574Z,9.48
2023-01-02T10:54:24.545Z,9.55
2023-01-02T10:55:14.524Z,9.67
2023-01-02T10:56:04.536Z,9.83
2023-01-02T10:56:54.504Z,9.98
2023-01-02T10:57:44.505Z,10.04
2023-01-02T10:58:34.512Z,10.10
2023-01-02T10:59:24.519Z,10.18
2023-01-02T11:00:14.480Z,10.25
2023-01-02T11:01:04.487Z,10.28
2023-01-02T11:01:54.710Z,10.34
2023-01-02T11:02:44.504Z,10.42
2023-01-02T11:03:34.462Z,10.44
2023-01-02T11:04:24.456Z,10.51
2023-01-02T11:05:14.416Z,10.55